Terminal Aerodrome Forecast
Issued by NWS Milwaukee/Sullivan, WI

Home | Current Version | Previous Version | Text Only | Print | Product List | Glossary On
Versions: 1 2 3 4 5 6 7 8 9 10 11 12 13 14 15 16 17 18 19 20 21 22 23 24
000
FTUS43 KMKX 031132
TAFMSN
TAF
KMSN 031132Z 0312/0412 28007KT P6SM OVC025
     FM032200 28004KT P6SM BKN035
     FM040900 18004KT P6SM OVC030
     FM041100 17004KT 5SM -SN OVC030=

USA.gov is the U.S. government's official web portal to all federal, state and local government web resources and services.